Time,TemperatureF,DewpointF,PressureIn,WindDirection,WindDirectionDegrees,WindSpeedMPH,WindSpeedGustMPH,Humidity,HourlyPrecipIn,Conditions,Clouds,dailyrainin,SoftwareType,DateUTC
2013-08-27 00:47:00,72.0,-99.9,29.90,West,281,-999.0,-999.0,-999,0.03,,,-99.99,,2013-08-27 04:47:00,
2013-08-27 01:43:00,72.0,-99.9,29.88,West,281,-999.0,-999.0,-999,-99.99,,,-99.99,,2013-08-27 05:43:00,
2013-08-27 01:52:00,72.0,-99.9,29.88,West,281,-999.0,-999.0,-999,-99.99,,,-99.99,,2013-08-27 05:52:00,
2013-08-27 02:42:00,71.0,-99.9,29.86,South,180,-999.0,-999.0,-999,0.00,,,-99.99,,2013-08-27 06:42:00,
2013-08-27 02:52:00,71.0,-99.9,29.86,South,180,-999.0,-999.0,-999,0.00,,,-99.99,,2013-08-27 06:52:00,
2013-08-27 03:42:00,71.0,-99.9,29.84,West,262,6.0,9.0,-999,0.00,,,-99.99,,2013-08-27 07:42:00,
2013-08-27 03:52:00,71.0,-99.9,29.84,West,262,6.0,9.0,-999,0.00,,,-99.99,,2013-08-27 07:52:00,
2013-08-27 04:42:00,71.0,-99.9,29.82,West,263,3.0,8.0,-999,0.00,,,-99.99,,2013-08-27 08:42:00,
2013-08-27 04:52:00,71.0,-99.9,29.82,West,263,3.0,8.0,-999,0.00,,,-99.99,,2013-08-27 08:52:00,
2013-08-27 04:53:00,71.0,-99.9,29.82,West,269,6.0,6.0,-999,0.00,,,-99.99,,2013-08-27 08:53:00,
2013-08-27 05:43:00,71.0,-99.9,29.82,West,269,6.0,6.0,-999,0.00,,,-99.99,,2013-08-27 09:43:00,
2013-08-27 05:53:00,71.0,-99.9,29.82,WSW,239,-999.0,-999.0,-999,0.00,,,-99.99,,2013-08-27 09:53:00,
2013-08-27 06:43:00,71.0,-99.9,29.82,WSW,239,-999.0,-999.0,-999,0.00,,,-99.99,,2013-08-27 10:43:00,
2013-08-27 07:42:00,71.0,-99.9,29.85,NW,312,-999.0,7.0,-999,0.00,,,-99.99,,2013-08-27 11:42:00,
2013-08-27 07:52:00,71.0,-99.9,29.85,NW,312,-999.0,7.0,-999,0.00,,,-99.99,,2013-08-27 11:52:00,
2013-08-27 08:42:00,71.0,-99.9,29.86,NNW,341,-999.0,6.0,-999,0.00,,,-99.99,,2013-08-27 12:42:00,
2013-08-27 08:52:00,71.0,-99.9,29.86,NNW,341,-999.0,6.0,-999,0.00,,,-99.99,,2013-08-27 12:52:00,
2013-08-27 09:42:00,73.0,-99.9,29.88,North,4,5.0,11.0,-999,0.00,,,-99.99,,2013-08-27 13:42:00,
2013-08-27 09:52:00,73.0,-99.9,29.88,North,4,5.0,11.0,-999,0.00,,,-99.99,,2013-08-27 13:52:00,
2013-08-27 09:53:00,75.0,-99.9,29.88,North,-999,9.0,12.0,-999,0.00,,,-99.99,,2013-08-27 13:53:00,
2013-08-27 10:42:00,75.0,-99.9,29.88,North,-999,9.0,12.0,-999,0.00,,,-99.99,,2013-08-27 14:42:00,
2013-08-27 10:53:00,79.0,-99.9,29.88,North,349,9.0,14.0,-999,0.00,,,-99.99,,2013-08-27 14:53:00,
2013-08-27 11:45:00,79.0,-99.9,29.88,North,349,9.0,14.0,-999,0.00,,,-99.99,,2013-08-27 15:45:00,
2013-08-27 11:53:00,81.0,-99.9,29.89,NNE,17,6.0,13.0,-999,0.00,,,-99.99,,2013-08-27 15:53:00,
2013-08-27 12:46:00,81.0,-99.9,29.89,NNE,17,6.0,13.0,-999,0.00,,,-99.99,,2013-08-27 16:46:00,
2013-08-27 13:43:00,81.0,-99.9,29.89,North,6,9.0,16.0,-999,0.00,,,-99.99,,2013-08-27 17:43:00,
2013-08-27 13:52:00,81.0,-99.9,29.89,North,6,9.0,16.0,-999,0.00,,,-99.99,,2013-08-27 17:52:00,
2013-08-27 13:53:00,83.0,-99.9,29.88,North,-999,4.0,11.0,-999,0.00,,,-99.99,,2013-08-27 17:53:00,
2013-08-27 14:42:00,83.0,-99.9,29.88,North,-999,4.0,11.0,-999,0.00,,,-99.99,,2013-08-27 18:42:00,
2013-08-27 15:42:00,85.0,-99.9,29.86,NW,305,5.0,12.0,-999,0.00,,,-99.99,,2013-08-27 19:42:00,
2013-08-27 15:52:00,85.0,-99.9,29.86,NW,305,5.0,12.0,-999,0.00,,,-99.99,,2013-08-27 19:52:00,